sensor_id;sensor_type;location;lat;lon;timestamp;temperature;humidity
4548;DHT22;2286;51.570;7.090;2022-10-31T00:00:06;15.10;99.90
4548;DHT22;2286;51.570;7.090;2022-10-31T00:02:33;15.10;99.90
4548;DHT22;2286;51.570;7.090;2022-10-31T00:05:00;15.10;99.90
4548;DHT22;2286;51.570;7.090;2022-10-31T00:07:28;15.10;99.90
4548;DHT22;2286;51.570;7.090;2022-10-31T00:09:55;15.10;99.90
4548;DHT22;2286;51.570;7.090;2022-10-31T00:12:22;15.10;99.90
4548;DHT22;2286;51.570;7.090;2022-10-31T00:14:48;15.10;99.90
4548;DHT22;2286;51.570;7.090;2022-10-31T00:17:15;15.10;99.90
4548;DHT22;2286;51.570;7.090;2022-10-31T00:19:42;15.10;99.90
4548;DHT22;2286;51.570;7.090;2022-10-31T00:22:09;14.90;99.90
4548;DHT22;2286;51.570;7.090;2022-10-31T00:24:37;14.80;99.90
4548;DHT22;2286;51.570;7.090;2022-10-31T00:27:04;14.60;99.90
4548;DHT22;2286;51.570;7.090;2022-10-31T00:29:31;14.50;99.90
4548;DHT22;2286;51.570;7.090;2022-10-31T00:31:58;14.30;99.90
4548;DHT22;2286;51.570;7.090;2022-10-31T00:34:25;14.20;99.90
4548;DHT22;2286;51.570;7.090;2022-10-31T00:36:52;14.00;99.90
4548;DHT22;2286;51.570;7.090;2022-10-31T00:39:18;14.00;99.90
4548;DHT22;2286;51.570;7.090;2022-10-31T00:41:47;13.90;99.90
4548;DHT22;2286;51.570;7.090;2022-10-31T00:44:13;13.80;99.90
4548;DHT22;2286;51.570;7.090;2022-10-31T00:46:40;13.70;99.90
4548;DHT22;2286;51.570;7.090;2022-10-31T00:49:07;13.60;99.90
4548;DHT22;2286;51.570;7.090;2022-10-31T00:51:34;13.60;99.90
4548;DHT22;2286;51.570;7.090;2022-10-31T00:54:01;13.60;99.90
4548;DHT22;2286;51.570;7.090;2022-10-31T00:56:28;13.70;99.90
4548;DHT22;2286;51.570;7.090;2022-10-31T00:58:56;13.80;99.90
4548;DHT22;2286;51.570;7.090;2022-10-31T01:01:23;13.80;99.90
4548;DHT22;2286;51.570;7.090;2022-10-31T01:03:50;13.90;99.90
4548;DHT22;2286;51.570;7.090;2022-10-31T01:06:17;13.90;99.90
4548;DHT22;2286;51.570;7.090;2022-10-31T01:08:46;13.90;99.90
4548;DHT22;2286;51.570;7.090;2022-10-31T01:11:15;13.80;99.90
4548;DHT22;2286;51.570;7.090;2022-10-31T01:13:42;13.90;99.90
4548;DHT22;2286;51.570;7.090;2022-10-31T01:16:13;13.90;99.90
4548;DHT22;2286;51.570;7.090;2022-10-31T01:18:40;13.90;99.90
4548;DHT22;2286;51.570;7.090;2022-10-31T01:21:09;13.80;99.90
4548;DHT22;2286;51.570;7.090;2022-10-31T01:23:36;13.80;99.90
4548;DHT22;2286;51.570;7.090;2022-10-31T01:26:06;13.90;99.90
4548;DHT22;2286;51.570;7.090;2022-10-31T01:28:34;13.90;99.90
4548;DHT22;2286;51.570;7.090;2022-10-31T01:31:02;13.90;99.90
4548;DHT22;2286;51.570;7.090;2022-10-31T01:33:31;13.90;99.90
4548;DHT22;2286;51.570;7.090;2022-10-31T01:35:58;13.90;99.90
4548;DHT22;2286;51.570;7.090;2022-10-31T01:38:25;13.90;99.90
4548;DHT22;2286;51.570;7.090;2022-10-31T01:40:52;14.00;99.90
4548;DHT22;2286;51.570;7.090;2022-10-31T01:43:19;14.00;99.90
4548;DHT22;2286;51.570;7.090;2022-10-31T01:45:50;14.00;99.90
4548;DHT22;2286;51.570;7.090;2022-10-31T01:48:20;14.10;99.90
4548;DHT22;2286;51.570;7.090;2022-10-31T01:50:53;14.10;99.90
4548;DHT22;2286;51.570;7.090;2022-10-31T01:53:21;14.10;99.90
4548;DHT22;2286;51.570;7.090;2022-10-31T01:55:49;14.10;99.90
4548;DHT22;2286;51.570;7.090;2022-10-31T01:58:19;14.00;99.90
4548;DHT22;2286;51.570;7.090;2022-10-31T02:00:50;13.90;99.90
4548;DHT22;2286;51.570;7.090;2022-10-31T02:03:19;13.80;99.90
4548;DHT22;2286;51.570;7.090;2022-10-31T02:05:47;13.70;99.90
4548;DHT22;2286;51.570;7.090;2022-10-31T02:08:18;13.70;99.90
4548;DHT22;2286;51.570;7.090;2022-10-31T02:10:46;13.60;99.90
4548;DHT22;2286;51.570;7.090;2022-10-31T02:13:13;13.50;99.90
4548;DHT22;2286;51.570;7.090;2022-10-31T02:15:41;13.40;99.90
4548;DHT22;2286;51.570;7.090;2022-10-31T02:18:09;13.40;99.90
4548;DHT22;2286;51.570;7.090;2022-10-31T02:20:42;13.30;99.90
4548;DHT22;2286;51.570;7.090;2022-10-31T02:23:44;13.20;99.90
4548;DHT22;2286;51.570;7.090;2022-10-31T02:26:27;13.20;99.90
4548;DHT22;2286;51.570;7.090;2022-10-31T02:32:02;13.00;99.90
4548;DHT22;2286;51.570;7.090;2022-10-31T02:34:37;12.90;99.90
4548;DHT22;2286;51.570;7.090;2022-10-31T02:37:11;12.90;99.90
4548;DHT22;2286;51.570;7.090;2022-10-31T02:39:44;12.80;99.90
4548;DHT22;2286;51.570;7.090;2022-10-31T02:42:17;12.80;99.90
4548;DHT22;2286;51.570;7.090;2022-10-31T02:44:52;12.80;99.90
4548;DHT22;2286;51.570;7.090;2022-10-31T02:47:26;12.80;99.90
4548;DHT22;2286;51.570;7.090;2022-10-31T02:49:56;12.80;99.90
4548;DHT22;2286;51.570;7.090;2022-10-31T02:52:27;12.70;99.90
4548;DHT22;2286;51.570;7.090;2022-10-31T02:54:54;12.70;99.90
4548;DHT22;2286;51.570;7.090;2022-10-31T02:57:25;12.60;99.90
4548;DHT22;2286;51.570;7.090;2022-10-31T02:59:54;12.50;99.90
4548;DHT22;2286;51.570;7.090;2022-10-31T03:02:36;12.50;99.90
4548;DHT22;2286;51.570;7.090;2022-10-31T03:05:23;12.40;99.90
4548;DHT22;2286;51.570;7.090;2022-10-31T03:08:00;12.30;99.90
4548;DHT22;2286;51.570;7.090;2022-10-31T03:10:35;12.30;99.90
4548;DHT22;2286;51.570;7.090;2022-10-31T03:13:10;12.20;99.90
4548;DHT22;2286;51.570;7.090;2022-10-31T03:15:40;12.20;99.90
4548;DHT22;2286;51.570;7.090;2022-10-31T03:18:12;12.20;99.90
4548;DHT22;2286;51.570;7.090;2022-10-31T03:20:43;12.10;99.90
4548;DHT22;2286;51.570;7.090;2022-10-31T03:23:14;12.10;99.90
4548;DHT22;2286;51.570;7.090;2022-10-31T03:25:42;12.00;99.90
4548;DHT22;2286;51.570;7.090;2022-10-31T03:28:11;12.00;99.90
4548;DHT22;2286;51.570;7.090;2022-10-31T03:30:41;11.90;99.90
4548;DHT22;2286;51.570;7.090;2022-10-31T03:33:17;11.90;99.90
4548;DHT22;2286;51.570;7.090;2022-10-31T03:35:47;11.80;99.90
4548;DHT22;2286;51.570;7.090;2022-10-31T03:38:15;11.80;99.90
4548;DHT22;2286;51.570;7.090;2022-10-31T03:40:44;11.80;99.90
4548;DHT22;2286;51.570;7.090;2022-10-31T03:43:15;11.80;99.90
4548;DHT22;2286;51.570;7.090;2022-10-31T03:45:45;11.70;99.90
4548;DHT22;2286;51.570;7.090;2022-10-31T03:48:15;11.70;99.90
4548;DHT22;2286;51.570;7.090;2022-10-31T03:50:50;11.60;99.90
4548;DHT22;2286;51.570;7.090;2022-10-31T03:53:24;11.60;99.90
4548;DHT22;2286;51.570;7.090;2022-10-31T03:55:54;11.70;99.90
4548;DHT22;2286;51.570;7.090;2022-10-31T03:58:28;11.60;99.90
4548;DHT22;2286;51.570;7.090;2022-10-31T04:00:59;11.60;99.90
4548;DHT22;2286;51.570;7.090;2022-10-31T04:03:30;11.50;99.90
4548;DHT22;2286;51.570;7.090;2022-10-31T04:06:02;11.50;99.90
4548;DHT22;2286;51.570;7.090;2022-10-31T04:08:32;11.50;99.90
4548;DHT22;2286;51.570;7.090;2022-10-31T04:11:01;11.40;99.90
4548;DHT22;2286;51.570;7.090;2022-10-31T04:13:31;11.30;99.90
4548;DHT22;2286;51.570;7.090;2022-10-31T04:16:00;11.30;99.90
4548;DHT22;2286;51.570;7.090;2022-10-31T04:18:28;11.30;99.90
4548;DHT22;2286;51.570;7.090;2022-10-31T04:21:03;11.30;99.90
4548;DHT22;2286;51.570;7.090;2022-10-31T04:23:31;11.20;99.90
4548;DHT22;2286;51.570;7.090;2022-10-31T04:25:58;11.30;99.90
4548;DHT22;2286;51.570;7.090;2022-10-31T04:28:24;11.30;99.90
4548;DHT22;2286;51.570;7.090;2022-10-31T04:30:51;11.40;99.90
4548;DHT22;2286;51.570;7.090;2022-10-31T04:33:19;11.40;99.90
4548;DHT22;2286;51.570;7.090;2022-10-31T04:35:47;11.40;99.90
4548;DHT22;2286;51.570;7.090;2022-10-31T04:38:14;11.40;99.90
4548;DHT22;2286;51.570;7.090;2022-10-31T04:40:41;11.50;99.90
4548;DHT22;2286;51.570;7.090;2022-10-31T04:43:08;11.50;99.90
4548;DHT22;2286;51.570;7.090;2022-10-31T04:45:35;11.50;99.90
4548;DHT22;2286;51.570;7.090;2022-10-31T04:48:01;11.60;99.90
4548;DHT22;2286;51.570;7.090;2022-10-31T04:50:28;11.60;99.90
4548;DHT22;2286;51.570;7.090;2022-10-31T04:52:56;11.60;99.90
4548;DHT22;2286;51.570;7.090;2022-10-31T04:55:23;11.60;99.90
4548;DHT22;2286;51.570;7.090;2022-10-31T04:57:50;11.60;99.90
4548;DHT22;2286;51.570;7.090;2022-10-31T05:00:19;11.60;99.90
4548;DHT22;2286;51.570;7.090;2022-10-31T05:02:46;11.60;99.90
4548;DHT22;2286;51.570;7.090;2022-10-31T05:05:14;11.60;99.90
4548;DHT22;2286;51.570;7.090;2022-10-31T05:07:42;11.60;99.90
4548;DHT22;2286;51.570;7.090;2022-10-31T05:10:11;11.60;99.90
4548;DHT22;2286;51.570;7.090;2022-10-31T05:12:45;11.60;99.90
4548;DHT22;2286;51.570;7.090;2022-10-31T05:15:12;11.60;99.90
4548;DHT22;2286;51.570;7.090;2022-10-31T05:17:39;11.50;99.90
4548;DHT22;2286;51.570;7.090;2022-10-31T05:20:06;11.50;99.90
4548;DHT22;2286;51.570;7.090;2022-10-31T05:22:34;11.40;99.90
4548;DHT22;2286;51.570;7.090;2022-10-31T05:25:00;11.40;99.90
4548;DHT22;2286;51.570;7.090;2022-10-31T05:27:29;11.30;99.90
4548;DHT22;2286;51.570;7.090;2022-10-31T05:29:55;11.30;99.90
4548;DHT22;2286;51.570;7.090;2022-10-31T05:32:22;11.30;99.90
4548;DHT22;2286;51.570;7.090;2022-10-31T05:34:49;11.30;99.90
4548;DHT22;2286;51.570;7.090;2022-10-31T05:37:16;11.20;99.90
4548;DHT22;2286;51.570;7.090;2022-10-31T05:39:43;11.20;99.90
4548;DHT22;2286;51.570;7.090;2022-10-31T05:42:10;11.20;99.90
4548;DHT22;2286;51.570;7.090;2022-10-31T05:44:38;11.20;99.90
4548;DHT22;2286;51.570;7.090;2022-10-31T05:47:05;11.10;99.90
4548;DHT22;2286;51.570;7.090;2022-10-31T05:49:32;11.10;99.90
4548;DHT22;2286;51.570;7.090;2022-10-31T05:51:59;11.10;99.90
4548;DHT22;2286;51.570;7.090;2022-10-31T05:54:26;11.10;99.90
4548;DHT22;2286;51.570;7.090;2022-10-31T05:56:53;11.10;99.90
4548;DHT22;2286;51.570;7.090;2022-10-31T05:59:19;11.10;99.90
4548;DHT22;2286;51.570;7.090;2022-10-31T06:01:47;11.20;99.90
4548;DHT22;2286;51.570;7.090;2022-10-31T06:04:14;11.30;99.90
4548;DHT22;2286;51.570;7.090;2022-10-31T06:06:41;11.30;99.90
4548;DHT22;2286;51.570;7.090;2022-10-31T06:09:08;11.30;99.90
4548;DHT22;2286;51.570;7.090;2022-10-31T06:11:35;11.30;99.90
4548;DHT22;2286;51.570;7.090;2022-10-31T06:14:02;11.30;99.90
4548;DHT22;2286;51.570;7.090;2022-10-31T06:16:29;11.30;99.90
4548;DHT22;2286;51.570;7.090;2022-10-31T06:18:57;11.30;99.90
4548;DHT22;2286;51.570;7.090;2022-10-31T06:21:24;11.20;99.90
4548;DHT22;2286;51.570;7.090;2022-10-31T06:23:51;11.20;99.90
4548;DHT22;2286;51.570;7.090;2022-10-31T06:26:18;11.20;99.90
4548;DHT22;2286;51.570;7.090;2022-10-31T06:28:44;11.20;99.90
4548;DHT22;2286;51.570;7.090;2022-10-31T06:31:11;11.20;99.90
4548;DHT22;2286;51.570;7.090;2022-10-31T06:33:40;11.20;99.90
4548;DHT22;2286;51.570;7.090;2022-10-31T06:36:09;11.20;99.90
4548;DHT22;2286;51.570;7.090;2022-10-31T06:38:35;11.20;99.90
4548;DHT22;2286;51.570;7.090;2022-10-31T06:41:03;11.20;99.90
4548;DHT22;2286;51.570;7.090;2022-10-31T06:43:30;11.20;99.90
4548;DHT22;2286;51.570;7.090;2022-10-31T06:45:57;11.20;99.90
4548;DHT22;2286;51.570;7.090;2022-10-31T06:48:24;11.20;99.90
4548;DHT22;2286;51.570;7.090;2022-10-31T06:50:51;11.20;99.90
4548;DHT22;2286;51.570;7.090;2022-10-31T06:53:19;11.20;99.90
4548;DHT22;2286;51.570;7.090;2022-10-31T06:55:46;11.20;99.90
4548;DHT22;2286;51.570;7.090;2022-10-31T06:58:12;11.20;99.90
4548;DHT22;2286;51.570;7.090;2022-10-31T07:00:39;11.30;99.90
4548;DHT22;2286;51.570;7.090;2022-10-31T07:03:09;11.40;99.90
4548;DHT22;2286;51.570;7.090;2022-10-31T07:05:36;11.40;99.90
4548;DHT22;2286;51.570;7.090;2022-10-31T07:08:05;11.40;99.90
4548;DHT22;2286;51.570;7.090;2022-10-31T07:10:35;11.40;99.90
4548;DHT22;2286;51.570;7.090;2022-10-31T07:13:04;11.50;99.90
4548;DHT22;2286;51.570;7.090;2022-10-31T07:15:34;11.50;99.90
4548;DHT22;2286;51.570;7.090;2022-10-31T07:18:01;11.60;99.90
4548;DHT22;2286;51.570;7.090;2022-10-31T07:20:29;11.60;99.90
4548;DHT22;2286;51.570;7.090;2022-10-31T07:22:56;11.60;99.90
4548;DHT22;2286;51.570;7.090;2022-10-31T07:25:23;11.60;99.90
4548;DHT22;2286;51.570;7.090;2022-10-31T07:27:52;11.60;99.90
4548;DHT22;2286;51.570;7.090;2022-10-31T07:30:19;11.60;99.90
4548;DHT22;2286;51.570;7.090;2022-10-31T07:32:47;11.70;99.90
4548;DHT22;2286;51.570;7.090;2022-10-31T07:35:16;11.70;99.90
4548;DHT22;2286;51.570;7.090;2022-10-31T07:37:43;11.70;99.90
4548;DHT22;2286;51.570;7.090;2022-10-31T07:40:10;11.70;99.90
4548;DHT22;2286;51.570;7.090;2022-10-31T07:42:38;11.80;99.90
4548;DHT22;2286;51.570;7.090;2022-10-31T07:45:09;11.80;99.90
4548;DHT22;2286;51.570;7.090;2022-10-31T07:47:39;11.90;99.90
4548;DHT22;2286;51.570;7.090;2022-10-31T07:50:06;11.90;99.90
4548;DHT22;2286;51.570;7.090;2022-10-31T07:52:33;11.90;99.90
4548;DHT22;2286;51.570;7.090;2022-10-31T07:55:00;12.00;99.90
4548;DHT22;2286;51.570;7.090;2022-10-31T07:57:27;12.10;99.90
4548;DHT22;2286;51.570;7.090;2022-10-31T07:59:54;12.10;99.90
4548;DHT22;2286;51.570;7.090;2022-10-31T08:02:22;12.20;99.90
4548;DHT22;2286;51.570;7.090;2022-10-31T08:04:49;12.20;99.90
4548;DHT22;2286;51.570;7.090;2022-10-31T08:07:16;12.30;99.90
4548;DHT22;2286;51.570;7.090;2022-10-31T08:09:43;12.40;99.90
4548;DHT22;2286;51.570;7.090;2022-10-31T08:12:10;12.50;99.90
4548;DHT22;2286;51.570;7.090;2022-10-31T08:14:37;12.50;99.90
4548;DHT22;2286;51.570;7.090;2022-10-31T08:17:04;12.60;99.90
4548;DHT22;2286;51.570;7.090;2022-10-31T08:19:32;12.60;99.90
4548;DHT22;2286;51.570;7.090;2022-10-31T08:21:59;12.70;99.90
4548;DHT22;2286;51.570;7.090;2022-10-31T08:24:26;12.80;99.90
4548;DHT22;2286;51.570;7.090;2022-10-31T08:26:53;12.90;99.90
4548;DHT22;2286;51.570;7.090;2022-10-31T08:29:19;12.90;99.90
4548;DHT22;2286;51.570;7.090;2022-10-31T08:31:46;13.00;99.90
4548;DHT22;2286;51.570;7.090;2022-10-31T08:34:13;13.10;99.90
4548;DHT22;2286;51.570;7.090;2022-10-31T08:36:41;13.10;99.90
4548;DHT22;2286;51.570;7.090;2022-10-31T08:39:10;13.20;99.90
4548;DHT22;2286;51.570;7.090;2022-10-31T08:41:37;13.30;99.90
4548;DHT22;2286;51.570;7.090;2022-10-31T08:44:04;13.40;99.90
4548;DHT22;2286;51.570;7.090;2022-10-31T08:46:31;13.50;99.90
4548;DHT22;2286;51.570;7.090;2022-10-31T08:48:58;13.60;99.90
4548;DHT22;2286;51.570;7.090;2022-10-31T08:51:25;13.70;99.90
4548;DHT22;2286;51.570;7.090;2022-10-31T08:53:53;13.80;99.90
4548;DHT22;2286;51.570;7.090;2022-10-31T08:56:20;13.90;99.90
4548;DHT22;2286;51.570;7.090;2022-10-31T08:58:47;14.00;99.90
4548;DHT22;2286;51.570;7.090;2022-10-31T09:01:14;14.10;99.90
4548;DHT22;2286;51.570;7.090;2022-10-31T09:03:41;14.20;99.90
4548;DHT22;2286;51.570;7.090;2022-10-31T09:06:08;14.30;99.90
4548;DHT22;2286;51.570;7.090;2022-10-31T09:08:35;14.40;99.90
4548;DHT22;2286;51.570;7.090;2022-10-31T09:11:04;14.40;99.90
4548;DHT22;2286;51.570;7.090;2022-10-31T09:13:32;14.50;99.90
4548;DHT22;2286;51.570;7.090;2022-10-31T09:15:59;14.60;99.90
4548;DHT22;2286;51.570;7.090;2022-10-31T09:18:26;14.70;99.90
4548;DHT22;2286;51.570;7.090;2022-10-31T09:20:54;14.90;99.90
4548;DHT22;2286;51.570;7.090;2022-10-31T09:23:23;15.10;99.90
4548;DHT22;2286;51.570;7.090;2022-10-31T09:25:52;15.40;99.90
4548;DHT22;2286;51.570;7.090;2022-10-31T09:28:22;15.80;99.90
4548;DHT22;2286;51.570;7.090;2022-10-31T09:30:52;16.30;99.90
4548;DHT22;2286;51.570;7.090;2022-10-31T09:33:20;16.70;99.90
4548;DHT22;2286;51.570;7.090;2022-10-31T09:35:48;16.80;99.90
4548;DHT22;2286;51.570;7.090;2022-10-31T09:38:16;16.80;1.00
4548;DHT22;2286;51.570;7.090;2022-10-31T09:40:46;17.10;99.90
4548;DHT22;2286;51.570;7.090;2022-10-31T09:43:15;17.40;1.00
4548;DHT22;2286;51.570;7.090;2022-10-31T09:45:55;17.60;99.90
4548;DHT22;2286;51.570;7.090;2022-10-31T09:51:20;18.30;1.00
4548;DHT22;2286;51.570;7.090;2022-10-31T09:53:51;18.40;1.00
4548;DHT22;2286;51.570;7.090;2022-10-31T09:56:22;18.40;1.00
4548;DHT22;2286;51.570;7.090;2022-10-31T09:58:51;18.30;99.90
4548;DHT22;2286;51.570;7.090;2022-10-31T10:01:32;18.40;99.90
4548;DHT22;2286;51.570;7.090;2022-10-31T10:04:05;18.40;99.90
4548;DHT22;2286;51.570;7.090;2022-10-31T10:06:40;18.30;1.00
4548;DHT22;2286;51.570;7.090;2022-10-31T10:09:09;18.10;1.00
4548;DHT22;2286;51.570;7.090;2022-10-31T10:11:47;18.00;1.00
4548;DHT22;2286;51.570;7.090;2022-10-31T10:14:27;17.90;99.90
4548;DHT22;2286;51.570;7.090;2022-10-31T10:17:11;17.90;99.90
4548;DHT22;2286;51.570;7.090;2022-10-31T10:19:56;17.90;99.90
4548;DHT22;2286;51.570;7.090;2022-10-31T10:22:33;17.90;21.70
4548;DHT22;2286;51.570;7.090;2022-10-31T10:25:14;18.00;99.90
4548;DHT22;2286;51.570;7.090;2022-10-31T10:27:59;18.20;99.90
4548;DHT22;2286;51.570;7.090;2022-10-31T10:30:35;18.70;99.90
4548;DHT22;2286;51.570;7.090;2022-10-31T10:33:08;19.10;99.90
4548;DHT22;2286;51.570;7.090;2022-10-31T10:35:39;19.50;99.90
4548;DHT22;2286;51.570;7.090;2022-10-31T10:38:14;19.90;1.00
4548;DHT22;2286;51.570;7.090;2022-10-31T10:40:42;20.40;99.90
4548;DHT22;2286;51.570;7.090;2022-10-31T10:43:19;20.70;1.00
4548;DHT22;2286;51.570;7.090;2022-10-31T10:45:50;20.90;1.00
4548;DHT22;2286;51.570;7.090;2022-10-31T10:48:43;21.20;1.00
4548;DHT22;2286;51.570;7.090;2022-10-31T10:51:23;21.60;1.00
4548;DHT22;2286;51.570;7.090;2022-10-31T10:54:03;21.80;99.90
4548;DHT22;2286;51.570;7.090;2022-10-31T10:56:53;22.00;99.90
4548;DHT22;2286;51.570;7.090;2022-10-31T10:59:22;21.80;99.90
4548;DHT22;2286;51.570;7.090;2022-10-31T11:01:51;21.60;99.90
4548;DHT22;2286;51.570;7.090;2022-10-31T11:04:35;21.50;99.90
4548;DHT22;2286;51.570;7.090;2022-10-31T11:07:04;21.10;99.90
4548;DHT22;2286;51.570;7.090;2022-10-31T11:09:32;20.90;1.00
4548;DHT22;2286;51.570;7.090;2022-10-31T11:12:05;20.70;1.00
4548;DHT22;2286;51.570;7.090;2022-10-31T11:14:36;20.40;1.00
4548;DHT22;2286;51.570;7.090;2022-10-31T11:17:15;20.30;1.00
4548;DHT22;2286;51.570;7.090;2022-10-31T11:19:43;20.20;1.00
4548;DHT22;2286;51.570;7.090;2022-10-31T11:22:16;20.10;5.00
4548;DHT22;2286;51.570;7.090;2022-10-31T11:24:43;20.10;1.00
4548;DHT22;2286;51.570;7.090;2022-10-31T11:27:16;20.20;1.00
4548;DHT22;2286;51.570;7.090;2022-10-31T11:29:43;20.20;1.00
4548;DHT22;2286;51.570;7.090;2022-10-31T11:32:19;20.20;1.00
4548;DHT22;2286;51.570;7.090;2022-10-31T11:34:49;20.40;1.00
4548;DHT22;2286;51.570;7.090;2022-10-31T11:37:20;20.70;1.00
4548;DHT22;2286;51.570;7.090;2022-10-31T11:39:50;21.10;1.00
4548;DHT22;2286;51.570;7.090;2022-10-31T11:42:21;21.30;1.00
4548;DHT22;2286;51.570;7.090;2022-10-31T11:44:50;21.60;99.90
4548;DHT22;2286;51.570;7.090;2022-10-31T11:47:21;21.70;99.90
4548;DHT22;2286;51.570;7.090;2022-10-31T11:49:52;21.60;99.90
4548;DHT22;2286;51.570;7.090;2022-10-31T11:52:21;21.70;99.90
4548;DHT22;2286;51.570;7.090;2022-10-31T11:54:51;22.00;99.90
4548;DHT22;2286;51.570;7.090;2022-10-31T11:57:27;22.10;99.90
4548;DHT22;2286;51.570;7.090;2022-10-31T11:59:56;22.30;99.90
4548;DHT22;2286;51.570;7.090;2022-10-31T12:02:24;22.50;99.90
4548;DHT22;2286;51.570;7.090;2022-10-31T12:05:00;22.50;99.90
4548;DHT22;2286;51.570;7.090;2022-10-31T12:07:29;22.40;99.90
4548;DHT22;2286;51.570;7.090;2022-10-31T12:09:56;22.30;99.90
4548;DHT22;2286;51.570;7.090;2022-10-31T12:12:39;22.30;99.90
4548;DHT22;2286;51.570;7.090;2022-10-31T12:15:27;22.20;99.90
4548;DHT22;2286;51.570;7.090;2022-10-31T12:18:05;22.20;99.90
4548;DHT22;2286;51.570;7.090;2022-10-31T12:20:46;22.10;99.90
4548;DHT22;2286;51.570;7.090;2022-10-31T12:23:23;22.00;99.90
4548;DHT22;2286;51.570;7.090;2022-10-31T12:26:06;21.70;99.90
4548;DHT22;2286;51.570;7.090;2022-10-31T12:28:44;21.60;99.90
4548;DHT22;2286;51.570;7.090;2022-10-31T12:31:29;21.40;99.90
4548;DHT22;2286;51.570;7.090;2022-10-31T12:34:12;21.20;99.90
4548;DHT22;2286;51.570;7.090;2022-10-31T12:36:53;21.10;99.90
4548;DHT22;2286;51.570;7.090;2022-10-31T12:39:32;21.10;99.90
4548;DHT22;2286;51.570;7.090;2022-10-31T12:42:05;21.00;1.00
4548;DHT22;2286;51.570;7.090;2022-10-31T12:45:07;21.00;1.00
4548;DHT22;2286;51.570;7.090;2022-10-31T12:48:03;21.10;1.00
4548;DHT22;2286;51.570;7.090;2022-10-31T12:50:44;21.20;1.00
4548;DHT22;2286;51.570;7.090;2022-10-31T12:53:25;21.30;99.90
4548;DHT22;2286;51.570;7.090;2022-10-31T12:56:02;21.30;99.90
4548;DHT22;2286;51.570;7.090;2022-10-31T12:58:35;21.50;99.90
4548;DHT22;2286;51.570;7.090;2022-10-31T13:01:08;21.90;99.90
4548;DHT22;2286;51.570;7.090;2022-10-31T13:03:43;22.20;99.90
4548;DHT22;2286;51.570;7.090;2022-10-31T13:06:19;22.60;99.90
4548;DHT22;2286;51.570;7.090;2022-10-31T13:08:50;22.70;99.90
4548;DHT22;2286;51.570;7.090;2022-10-31T13:11:22;22.80;99.90
4548;DHT22;2286;51.570;7.090;2022-10-31T13:13:57;22.90;99.90
4548;DHT22;2286;51.570;7.090;2022-10-31T13:16:28;23.00;99.90
4548;DHT22;2286;51.570;7.090;2022-10-31T13:19:00;23.20;99.90
4548;DHT22;2286;51.570;7.090;2022-10-31T13:21:32;23.40;99.90
4548;DHT22;2286;51.570;7.090;2022-10-31T13:24:05;23.40;99.90
4548;DHT22;2286;51.570;7.090;2022-10-31T13:26:37;23.30;99.90
4548;DHT22;2286;51.570;7.090;2022-10-31T13:29:11;23.10;99.90
4548;DHT22;2286;51.570;7.090;2022-10-31T13:31:40;22.90;99.90
4548;DHT22;2286;51.570;7.090;2022-10-31T13:34:17;22.80;99.90
4548;DHT22;2286;51.570;7.090;2022-10-31T13:36:48;22.80;99.90
4548;DHT22;2286;51.570;7.090;2022-10-31T13:39:30;22.70;99.90
4548;DHT22;2286;51.570;7.090;2022-10-31T13:42:03;22.30;99.90
4548;DHT22;2286;51.570;7.090;2022-10-31T13:44:35;22.20;99.90
4548;DHT22;2286;51.570;7.090;2022-10-31T13:47:23;22.00;99.90
4548;DHT22;2286;51.570;7.090;2022-10-31T13:49:51;22.10;99.90
4548;DHT22;2286;51.570;7.090;2022-10-31T13:52:24;22.40;99.90
4548;DHT22;2286;51.570;7.090;2022-10-31T13:54:54;22.70;99.90
4548;DHT22;2286;51.570;7.090;2022-10-31T13:57:32;22.60;99.90
4548;DHT22;2286;51.570;7.090;2022-10-31T14:00:03;22.60;99.90
4548;DHT22;2286;51.570;7.090;2022-10-31T14:02:32;22.60;99.90
4548;DHT22;2286;51.570;7.090;2022-10-31T14:05:01;22.60;99.90
4548;DHT22;2286;51.570;7.090;2022-10-31T14:07:30;22.30;99.90
4548;DHT22;2286;51.570;7.090;2022-10-31T14:10:02;22.10;99.90
4548;DHT22;2286;51.570;7.090;2022-10-31T14:12:32;22.00;99.90
4548;DHT22;2286;51.570;7.090;2022-10-31T14:15:05;22.00;99.90
4548;DHT22;2286;51.570;7.090;2022-10-31T14:17:45;21.90;99.90
4548;DHT22;2286;51.570;7.090;2022-10-31T14:20:36;21.90;99.90
4548;DHT22;2286;51.570;7.090;2022-10-31T14:23:37;21.70;99.90
4548;DHT22;2286;51.570;7.090;2022-10-31T14:26:32;21.70;99.90
4548;DHT22;2286;51.570;7.090;2022-10-31T14:29:00;21.70;99.90
4548;DHT22;2286;51.570;7.090;2022-10-31T14:31:31;21.60;99.90
4548;DHT22;2286;51.570;7.090;2022-10-31T14:34:01;21.40;99.90
4548;DHT22;2286;51.570;7.090;2022-10-31T14:36:39;21.30;1.00
4548;DHT22;2286;51.570;7.090;2022-10-31T14:39:13;21.20;1.00
4548;DHT22;2286;51.570;7.090;2022-10-31T14:42:00;21.20;1.00
4548;DHT22;2286;51.570;7.090;2022-10-31T14:47:39;21.70;1.00
4548;DHT22;2286;51.570;7.090;2022-10-31T14:50:21;22.20;99.90
4548;DHT22;2286;51.570;7.090;2022-10-31T14:52:51;22.20;99.90
4548;DHT22;2286;51.570;7.090;2022-10-31T14:55:20;22.30;99.90
4548;DHT22;2286;51.570;7.090;2022-10-31T14:57:51;22.20;99.90
4548;DHT22;2286;51.570;7.090;2022-10-31T15:00:20;21.90;99.90
4548;DHT22;2286;51.570;7.090;2022-10-31T15:02:56;21.60;99.90
4548;DHT22;2286;51.570;7.090;2022-10-31T15:05:26;21.10;1.00
4548;DHT22;2286;51.570;7.090;2022-10-31T15:07:55;20.80;1.00
4548;DHT22;2286;51.570;7.090;2022-10-31T15:10:24;20.60;1.00
4548;DHT22;2286;51.570;7.090;2022-10-31T15:12:53;20.40;1.00
4548;DHT22;2286;51.570;7.090;2022-10-31T15:15:21;20.20;37.40
4548;DHT22;2286;51.570;7.090;2022-10-31T15:17:51;20.20;84.30
4548;DHT22;2286;51.570;7.090;2022-10-31T15:20:21;20.10;99.90
4548;DHT22;2286;51.570;7.090;2022-10-31T15:22:48;20.00;99.90
4548;DHT22;2286;51.570;7.090;2022-10-31T15:25:18;19.90;99.90
4548;DHT22;2286;51.570;7.090;2022-10-31T15:27:46;19.80;99.90
4548;DHT22;2286;51.570;7.090;2022-10-31T15:30:18;19.70;99.90
4548;DHT22;2286;51.570;7.090;2022-10-31T15:32:46;19.60;99.90
4548;DHT22;2286;51.570;7.090;2022-10-31T15:35:21;19.50;1.00
4548;DHT22;2286;51.570;7.090;2022-10-31T15:37:48;19.40;1.00
4548;DHT22;2286;51.570;7.090;2022-10-31T15:40:17;19.30;99.90
4548;DHT22;2286;51.570;7.090;2022-10-31T15:42:50;19.10;1.00
4548;DHT22;2286;51.570;7.090;2022-10-31T15:45:22;19.00;1.00
4548;DHT22;2286;51.570;7.090;2022-10-31T15:47:57;18.90;1.00
4548;DHT22;2286;51.570;7.090;2022-10-31T15:50:29;18.80;1.00
4548;DHT22;2286;51.570;7.090;2022-10-31T15:52:57;18.60;1.00
4548;DHT22;2286;51.570;7.090;2022-10-31T15:55:26;18.50;1.00
4548;DHT22;2286;51.570;7.090;2022-10-31T15:57:57;18.40;1.00
4548;DHT22;2286;51.570;7.090;2022-10-31T16:00:28;18.20;99.90
4548;DHT22;2286;51.570;7.090;2022-10-31T16:03:03;18.10;20.70
4548;DHT22;2286;51.570;7.090;2022-10-31T16:05:36;17.80;1.00
4548;DHT22;2286;51.570;7.090;2022-10-31T16:08:03;17.60;1.00
4548;DHT22;2286;51.570;7.090;2022-10-31T16:10:33;17.40;27.00
4548;DHT22;2286;51.570;7.090;2022-10-31T16:13:01;17.30;1.00
4548;DHT22;2286;51.570;7.090;2022-10-31T16:15:30;17.10;99.90
4548;DHT22;2286;51.570;7.090;2022-10-31T16:17:58;17.00;1.00
4548;DHT22;2286;51.570;7.090;2022-10-31T16:20:27;16.80;99.90
4548;DHT22;2286;51.570;7.090;2022-10-31T16:22:57;16.60;99.90
4548;DHT22;2286;51.570;7.090;2022-10-31T16:25:27;16.50;1.00
4548;DHT22;2286;51.570;7.090;2022-10-31T16:27:59;16.40;1.00
4548;DHT22;2286;51.570;7.090;2022-10-31T16:30:35;16.30;1.00
4548;DHT22;2286;51.570;7.090;2022-10-31T16:33:04;16.20;48.70
4548;DHT22;2286;51.570;7.090;2022-10-31T16:35:33;16.10;99.90